Time;durP1;ratioP1;P1;durP2;ratioP2;P2;SDS_P1;SDS_P2;PMS_P1;PMS_P2;Temp;Humidity;BMP_temperature;BMP_pressure;BME280_temperature;BME280_humidity;BME280_pressure;Samples;Min_cycle;Max_cycle;Signal;HPM_P1;HPM_P2
2022/10/22 00:01:46;;;;;;;7.25;3.22;;;12.90;99.90;;;;;;4987262;28;20049;-41
2022/10/22 00:04:12;;;;;;;4.68;2.50;;;12.90;99.90;;;;;;4987360;28;20411;-40
2022/10/22 00:06:37;;;;;;;5.38;2.83;;;12.90;99.90;;;;;;4988724;28;20450;-40
2022/10/22 00:09:03;;;;;;;5.82;2.63;;;12.80;99.90;;;;;;4988753;28;20480;-40
2022/10/22 00:11:29;;;;;;;8.40;3.35;;;12.80;99.90;;;;;;4990573;28;20586;-40
2022/10/22 00:13:54;;;;;;;5.32;2.63;;;12.90;99.90;;;;;;4989438;28;20034;-42
2022/10/22 00:16:20;;;;;;;7.70;3.47;;;12.90;99.90;;;;;;4988633;28;20172;-41
2022/10/22 00:18:46;;;;;;;6.38;4.00;;;12.90;99.90;;;;;;4986085;28;20035;-40
2022/10/22 00:21:11;;;;;;;5.15;2.97;;;12.90;99.90;;;;;;4978462;28;20415;-40
2022/10/22 00:23:41;;;;;;;6.95;3.15;;;12.90;99.90;;;;;;4987286;28;20042;-40
2022/10/22 00:26:07;;;;;;;6.53;3.10;;;12.90;99.90;;;;;;4981678;28;20066;-40
2022/10/22 00:28:32;;;;;;;4.93;3.00;;;12.80;99.90;;;;;;4986895;28;20065;-40
2022/10/22 00:30:59;;;;;;;9.98;2.63;;;12.80;99.90;;;;;;4984067;28;20078;-41
2022/10/22 00:33:26;;;;;;;7.28;2.95;;;12.80;99.90;;;;;;4987905;28;20476;-40
2022/10/22 00:35:51;;;;;;;3.90;2.17;;;12.80;99.90;;;;;;4985395;28;20117;-40
2022/10/22 00:38:17;;;;;;;6.47;3.13;;;12.80;99.90;;;;;;4988889;28;20034;-41
2022/10/22 00:40:43;;;;;;;5.28;2.67;;;12.80;99.90;;;;;;4985523;28;20026;-40
2022/10/22 00:43:14;;;;;;;7.63;2.60;;;12.80;99.90;;;;;;4985245;28;20050;-40
2022/10/22 00:45:40;;;;;;;6.93;3.30;;;12.80;99.90;;;;;;4987574;28;20465;-41
2022/10/22 00:48:19;;;;;;;5.38;3.33;;;12.80;99.90;;;;;;4989696;28;20046;-40
2022/10/22 00:51:05;;;;;;;5.70;3.63;;;12.80;99.90;;;;;;4988859;28;20042;-41
2022/10/22 00:53:42;;;;;;;6.65;3.22;;;12.70;99.90;;;;;;4983266;28;20039;-40
2022/10/22 00:56:08;;;;;;;5.97;2.78;;;12.70;99.90;;;;;;4989288;28;20042;-40
2022/10/22 00:58:40;;;;;;;5.60;3.00;;;12.70;99.90;;;;;;4988294;28;20537;-41
2022/10/22 01:01:11;;;;;;;5.85;3.35;;;12.70;99.90;;;;;;4987409;28;20046;-41
2022/10/22 01:03:36;;;;;;;9.93;3.80;;;12.70;99.90;;;;;;4987034;28;20042;-40
2022/10/22 01:06:04;;;;;;;5.97;3.08;;;12.70;99.90;;;;;;4991655;28;20101;-40
2022/10/22 01:08:45;;;;;;;5.97;3.08;;;12.70;99.90;;;;;;4989070;28;20046;-40
2022/10/22 01:11:25;;;;;;;5.63;3.03;;;12.70;99.90;;;;;;4990035;28;20092;-53
2022/10/22 01:14:05;;;;;;;6.60;3.42;;;12.70;99.90;;;;;;4988769;28;20042;-40
2022/10/22 01:16:43;;;;;;;7.10;3.58;;;12.70;99.90;;;;;;4989930;28;20047;-40
2022/10/22 01:19:15;;;;;;;9.07;3.90;;;12.70;99.90;;;;;;4991014;28;20053;-40
2022/10/22 01:21:45;;;;;;;8.87;3.97;;;12.70;99.90;;;;;;4990634;28;20042;-40
2022/10/22 01:24:30;;;;;;;7.07;3.70;;;12.70;99.90;;;;;;4988584;28;20857;-40
2022/10/22 01:27:20;;;;;;;9.95;3.40;;;12.80;99.90;;;;;;4985193;28;20078;-40
2022/10/22 01:29:54;;;;;;;5.90;3.42;;;12.80;99.90;;;;;;4987520;28;20499;-40
2022/10/22 01:32:24;;;;;;;6.32;3.63;;;12.80;99.90;;;;;;4990930;28;20054;-40
2022/10/22 01:35:03;;;;;;;8.25;3.58;;;12.80;99.90;;;;;;4989179;28;20511;-40
2022/10/22 01:37:33;;;;;;;5.20;2.83;;;12.80;99.90;;;;;;4989712;28;20045;-40
2022/10/22 01:40:00;;;;;;;6.55;3.22;;;12.80;99.90;;;;;;4982996;28;20046;-40
2022/10/22 01:42:26;;;;;;;7.15;3.55;;;12.80;99.90;;;;;;4988510;28;20109;-48
2022/10/22 01:44:52;;;;;;;6.57;3.55;;;12.80;99.90;;;;;;4987148;28;20108;-41
2022/10/22 01:47:49;;;;;;;8.38;3.45;;;12.80;99.90;;;;;;4984041;28;20035;-40
2022/10/22 01:50:30;;;;;;;8.55;3.50;;;12.80;99.90;;;;;;4985058;28;20046;-50
2022/10/22 01:53:17;;;;;;;5.80;2.70;;;12.80;99.90;;;;;;4989965;28;20085;-40
2022/10/22 01:55:56;;;;;;;4.25;2.50;;;12.80;99.90;;;;;;4985865;28;20285;-40
2022/10/22 01:58:51;;;;;;;4.00;2.47;;;12.80;99.90;;;;;;4990762;28;20042;-40
2022/10/22 02:01:31;;;;;;;7.65;3.53;;;12.70;99.90;;;;;;4968351;28;21112;-40
2022/10/22 02:04:34;;;;;;;6.20;3.22;;;12.70;99.90;;;;;;4990213;28;20052;-40
2022/10/22 02:07:06;;;;;;;5.60;3.00;;;12.70;99.90;;;;;;4986665;28;20046;-41
2022/10/22 02:09:34;;;;;;;7.70;3.40;;;12.60;99.90;;;;;;4988390;28;20466;-40
2022/10/22 02:12:02;;;;;;;5.82;2.90;;;12.60;99.90;;;;;;4984792;28;20057;-40
2022/10/22 02:14:30;;;;;;;8.80;2.97;;;12.60;99.90;;;;;;4987375;28;20076;-40
2022/10/22 02:16:57;;;;;;;6.07;3.15;;;12.50;99.90;;;;;;4986457;28;20121;-40
2022/10/22 02:19:27;;;;;;;5.75;2.90;;;12.50;99.90;;;;;;4991694;28;20096;-40
2022/10/22 02:21:53;;;;;;;7.68;3.55;;;12.50;99.90;;;;;;4987613;28;20046;-40
2022/10/22 02:24:20;;;;;;;8.85;3.05;;;12.50;99.90;;;;;;4991106;28;20625;-40
2022/10/22 02:27:00;;;;;;;4.93;2.92;;;12.50;99.90;;;;;;4985215;28;20507;-40
2022/10/22 02:29:36;;;;;;;8.45;2.65;;;12.50;99.90;;;;;;4988538;28;20050;-42
2022/10/22 02:32:05;;;;;;;5.72;3.30;;;12.40;99.90;;;;;;4987438;28;20117;-40
2022/10/22 02:34:32;;;;;;;8.05;4.20;;;12.50;99.90;;;;;;4986217;28;20558;-52
2022/10/22 02:37:00;;;;;;;8.63;3.17;;;12.50;99.90;;;;;;4988515;28;20564;-41
2022/10/22 02:39:26;;;;;;;8.95;3.40;;;12.50;99.90;;;;;;4990386;28;20069;-40
2022/10/22 02:41:54;;;;;;;7.82;3.85;;;12.50;99.90;;;;;;4984815;28;20050;-40
2022/10/22 02:44:20;;;;;;;7.25;3.28;;;12.50;99.90;;;;;;4987793;28;20046;-41
2022/10/22 02:46:47;;;;;;;8.15;4.00;;;12.60;99.90;;;;;;4985031;28;20058;-40
2022/10/22 02:49:12;;;;;;;7.75;3.28;;;12.50;99.90;;;;;;4989534;28;20034;-48
2022/10/22 02:51:38;;;;;;;7.28;3.67;;;12.60;99.90;;;;;;4991204;28;20042;-41
2022/10/22 02:54:04;;;;;;;12.07;3.85;;;12.50;99.90;;;;;;4983451;28;20083;-40
2022/10/22 02:56:30;;;;;;;6.28;3.85;;;12.50;99.90;;;;;;4983471;28;20050;-41
2022/10/22 02:58:56;;;;;;;7.80;3.15;;;12.50;99.90;;;;;;4988435;28;20046;-40
2022/10/22 03:01:22;;;;;;;7.85;3.90;;;12.50;99.90;;;;;;4987216;28;20070;-40
2022/10/22 03:03:48;;;;;;;7.20;3.92;;;12.50;99.90;;;;;;4987377;28;20038;-40
2022/10/22 03:06:13;;;;;;;9.18;3.70;;;12.50;99.90;;;;;;4985123;28;20034;-42
2022/10/22 03:08:40;;;;;;;7.43;4.05;;;12.50;99.90;;;;;;4989134;28;20040;-39
2022/10/22 03:11:05;;;;;;;6.32;3.45;;;12.50;99.90;;;;;;4987066;28;20085;-41
2022/10/22 03:13:31;;;;;;;12.40;4.18;;;12.40;99.90;;;;;;4982204;28;20061;-40
2022/10/22 03:15:57;;;;;;;6.88;3.92;;;12.40;99.90;;;;;;4985878;28;20038;-41
2022/10/22 03:18:22;;;;;;;8.68;4.57;;;12.40;99.90;;;;;;4980253;28;20039;-40
2022/10/22 03:20:48;;;;;;;7.82;4.35;;;12.40;99.90;;;;;;4989532;28;20038;-40
2022/10/22 03:23:18;;;;;;;10.25;4.90;;;12.40;99.90;;;;;;4987402;28;20065;-40
2022/10/22 03:25:46;;;;;;;8.02;4.28;;;12.40;99.90;;;;;;4985618;28;20518;-41
2022/10/22 03:28:15;;;;;;;14.95;4.40;;;12.40;99.90;;;;;;4984547;28;20503;-40
2022/10/22 03:30:40;;;;;;;6.43;3.97;;;12.30;99.90;;;;;;4985661;28;20038;-40
2022/10/22 03:33:06;;;;;;;9.20;3.80;;;12.30;99.90;;;;;;4986382;28;20431;-41
2022/10/22 03:35:35;;;;;;;8.90;3.95;;;12.30;99.90;;;;;;4986755;28;20392;-40
2022/10/22 03:38:01;;;;;;;9.40;3.63;;;12.30;99.90;;;;;;4987051;28;20484;-40
2022/10/22 03:40:26;;;;;;;9.27;4.88;;;12.20;99.90;;;;;;4984022;28;20046;-40
2022/10/22 03:42:52;;;;;;;6.93;3.88;;;12.20;99.90;;;;;;4984429;28;20050;-40
2022/10/22 03:45:18;;;;;;;10.63;4.10;;;12.20;99.90;;;;;;4984416;28;20047;-41
2022/10/22 03:47:44;;;;;;;11.25;4.32;;;12.20;99.90;;;;;;4984991;28;20578;-40
2022/10/22 03:50:10;;;;;;;8.02;3.83;;;12.20;99.90;;;;;;4978868;28;20043;-40
2022/10/22 03:52:38;;;;;;;6.85;4.05;;;12.20;99.90;;;;;;4981692;28;20512;-40
2022/10/22 03:55:04;;;;;;;7.30;4.13;;;12.20;99.90;;;;;;4986594;28;20134;-40
2022/10/22 03:57:30;;;;;;;5.82;4.22;;;12.20;99.90;;;;;;4983171;28;20081;-40
2022/10/22 03:59:56;;;;;;;7.95;4.25;;;12.20;99.90;;;;;;4986114;28;20041;-42
2022/10/22 04:02:21;;;;;;;10.05;4.45;;;12.20;99.90;;;;;;4979551;28;20038;-40
2022/10/22 04:04:47;;;;;;;8.65;4.40;;;12.20;99.90;;;;;;4985308;28;20042;-39
2022/10/22 04:07:12;;;;;;;13.35;3.97;;;12.20;99.90;;;;;;4984257;28;20042;-40
2022/10/22 04:09:38;;;;;;;8.15;4.85;;;12.20;99.90;;;;;;4986815;28;20083;-41
2022/10/22 04:12:05;;;;;;;8.02;4.38;;;12.20;99.90;;;;;;4985030;28;20071;-40
2022/10/22 04:14:31;;;;;;;10.07;5.03;;;12.20;99.90;;;;;;4989813;28;20107;-40
2022/10/22 04:16:56;;;;;;;10.68;4.55;;;12.30;99.90;;;;;;4982469;28;20085;-40
2022/10/22 04:19:22;;;;;;;8.60;5.10;;;12.30;99.90;;;;;;4989424;28;20416;-40
2022/10/22 04:21:48;;;;;;;10.27;5.38;;;12.30;99.90;;;;;;4986888;28;20046;-40
2022/10/22 04:24:14;;;;;;;9.93;4.88;;;12.30;99.90;;;;;;4988321;28;20057;-41
2022/10/22 04:26:40;;;;;;;9.50;5.10;;;12.30;99.90;;;;;;4988257;28;20125;-40
2022/10/22 04:29:06;;;;;;;10.88;5.32;;;12.40;99.90;;;;;;4988373;28;20480;-49
2022/10/22 04:31:32;;;;;;;7.95;4.22;;;12.40;99.90;;;;;;4987371;28;20451;-40
2022/10/22 04:33:59;;;;;;;8.10;4.82;;;12.40;99.90;;;;;;4988067;28;20121;-40
2022/10/22 04:36:26;;;;;;;11.02;5.28;;;12.40;99.90;;;;;;4987669;28;20097;-41
2022/10/22 04:38:55;;;;;;;9.77;4.90;;;12.40;99.90;;;;;;4985048;28;20053;-41
2022/10/22 04:41:27;;;;;;;10.43;5.32;;;12.40;99.90;;;;;;4990478;28;20038;-41
2022/10/22 04:43:55;;;;;;;12.73;4.80;;;12.40;99.90;;;;;;4992572;28;20503;-40
2022/10/22 04:46:21;;;;;;;10.63;5.22;;;12.40;99.90;;;;;;4986143;28;20077;-40
2022/10/22 04:48:47;;;;;;;10.52;5.18;;;12.40;99.90;;;;;;4988690;28;20057;-43
2022/10/22 04:51:16;;;;;;;10.15;3.92;;;12.40;99.90;;;;;;4990117;28;20545;-40
2022/10/22 04:53:43;;;;;;;8.77;5.35;;;12.40;99.90;;;;;;4994447;28;20488;-40
2022/10/22 04:56:10;;;;;;;12.98;5.20;;;12.40;99.90;;;;;;4991748;28;20507;-40
2022/10/22 04:58:37;;;;;;;8.98;4.70;;;12.40;99.90;;;;;;4991873;28;20557;-40
2022/10/22 05:01:23;;;;;;;8.93;4.68;;;12.40;99.90;;;;;;4990081;28;20051;-40
2022/10/22 05:03:50;;;;;;;9.15;4.70;;;12.40;99.90;;;;;;4986324;28;20042;-41
2022/10/22 05:06:17;;;;;;;9.52;4.18;;;12.40;99.90;;;;;;4989470;28;20125;-40
2022/10/22 05:08:43;;;;;;;13.45;5.25;;;12.40;99.90;;;;;;4989261;28;20506;-40
2022/10/22 05:11:12;;;;;;;8.73;4.47;;;12.40;99.90;;;;;;4984066;28;20122;-40
2022/10/22 05:13:38;;;;;;;9.13;4.65;;;12.40;99.90;;;;;;4990717;28;21357;-41
2022/10/22 05:16:04;;;;;;;11.38;5.10;;;12.40;99.90;;;;;;4990301;28;20042;-41
2022/10/22 05:18:32;;;;;;;8.18;4.68;;;12.40;99.90;;;;;;4986916;28;20034;-40
2022/10/22 05:20:57;;;;;;;8.95;4.93;;;12.40;99.90;;;;;;4991459;28;20041;-41
2022/10/22 05:23:23;;;;;;;10.80;5.03;;;12.40;99.90;;;;;;4990391;28;20046;-42
2022/10/22 05:25:49;;;;;;;9.05;4.82;;;12.40;99.90;;;;;;4991315;28;20045;-39
2022/10/22 05:28:14;;;;;;;11.07;4.55;;;12.40;99.90;;;;;;4989572;28;20038;-41
2022/10/22 05:30:40;;;;;;;9.50;4.78;;;12.40;99.90;;;;;;4986842;28;20038;-40
2022/10/22 05:33:05;;;;;;;9.55;4.90;;;12.40;99.90;;;;;;4992663;28;20120;-41
2022/10/22 05:35:31;;;;;;;9.45;4.53;;;12.40;99.90;;;;;;4990047;28;20041;-41
2022/10/22 05:37:57;;;;;;;8.75;4.32;;;12.40;99.90;;;;;;4986253;28;20043;-40
2022/10/22 05:40:22;;;;;;;11.35;5.13;;;12.50;99.90;;;;;;4991768;28;20034;-40
2022/10/22 05:42:48;;;;;;;11.38;4.95;;;12.50;99.90;;;;;;4989675;28;20045;-40
2022/10/22 05:45:14;;;;;;;11.85;4.97;;;12.50;99.90;;;;;;4990272;28;20081;-41
2022/10/22 05:47:39;;;;;;;11.52;4.13;;;12.50;99.90;;;;;;4989707;28;20068;-40
2022/10/22 05:50:05;;;;;;;9.50;4.53;;;12.50;99.90;;;;;;4988661;28;20400;-39
2022/10/22 05:52:31;;;;;;;9.13;4.93;;;12.50;99.90;;;;;;4988442;28;20041;-52
2022/10/22 05:54:56;;;;;;;8.63;4.38;;;12.50;99.90;;;;;;4987039;28;20034;-40
2022/10/22 05:57:22;;;;;;;8.57;4.22;;;12.50;99.90;;;;;;4985900;28;20046;-40
2022/10/22 05:59:48;;;;;;;10.35;4.60;;;12.50;99.90;;;;;;4990514;28;20046;-40
2022/10/22 06:02:13;;;;;;;12.13;4.55;;;12.50;99.90;;;;;;4985328;28;20189;-41
2022/10/22 06:04:39;;;;;;;11.57;4.45;;;12.50;99.90;;;;;;4992038;28;20042;-40
2022/10/22 06:07:05;;;;;;;10.73;4.30;;;12.50;99.90;;;;;;4985523;28;20411;-42
2022/10/22 06:09:35;;;;;;;9.75;4.60;;;12.50;99.90;;;;;;4986495;28;20511;-40
2022/10/22 06:12:01;;;;;;;9.98;4.13;;;12.50;99.90;;;;;;4987120;28;20045;-40
2022/10/22 06:14:27;;;;;;;7.60;4.05;;;12.50;99.90;;;;;;4986985;28;20046;-41
2022/10/22 06:16:53;;;;;;;9.98;4.70;;;12.50;99.90;;;;;;4987345;28;20121;-40
2022/10/22 06:19:25;;;;;;;8.35;4.60;;;12.50;99.90;;;;;;4991387;28;20143;-40
2022/10/22 06:21:51;;;;;;;10.73;3.85;;;12.50;99.90;;;;;;4979702;28;20070;-40
2022/10/22 06:24:17;;;;;;;8.60;4.57;;;12.50;99.90;;;;;;4990249;28;20112;-40
2022/10/22 06:26:42;;;;;;;11.07;4.97;;;12.50;99.90;;;;;;4987227;28;20049;-40
2022/10/22 06:29:09;;;;;;;10.18;4.07;;;12.50;99.90;;;;;;4988404;28;20045;-40
2022/10/22 06:31:37;;;;;;;12.88;5.35;;;12.50;99.90;;;;;;4985868;28;20399;-55
2022/10/22 06:34:05;;;;;;;8.13;4.70;;;12.50;99.90;;;;;;4987755;28;20041;-40
2022/10/22 06:36:31;;;;;;;10.82;4.20;;;12.50;99.90;;;;;;4985671;28;20381;-40
2022/10/22 06:38:57;;;;;;;8.77;4.63;;;12.50;99.90;;;;;;4985888;28;20053;-40
2022/10/22 06:41:23;;;;;;;8.07;4.13;;;12.60;99.90;;;;;;4987946;28;20048;-40
2022/10/22 06:43:49;;;;;;;10.82;4.82;;;12.60;99.90;;;;;;4987375;28;20042;-41
2022/10/22 06:46:17;;;;;;;7.18;3.63;;;12.60;99.90;;;;;;4985546;28;20054;-41
2022/10/22 06:48:51;;;;;;;7.80;4.20;;;12.60;99.90;;;;;;4984984;28;20491;-39
2022/10/22 06:51:17;;;;;;;8.30;4.05;;;12.60;99.90;;;;;;4983629;28;20035;-39
2022/10/22 06:53:43;;;;;;;7.57;3.38;;;12.60;99.90;;;;;;4984427;28;20038;-40
2022/10/22 06:56:11;;;;;;;9.88;3.88;;;12.60;99.90;;;;;;4983157;28;20049;-39
2022/10/22 06:58:37;;;;;;;8.50;4.47;;;12.60;99.90;;;;;;4990045;28;20476;-39
2022/10/22 07:01:06;;;;;;;8.70;3.90;;;12.60;99.90;;;;;;4991085;28;20034;-40
2022/10/22 07:03:31;;;;;;;6.93;3.40;;;12.60;99.90;;;;;;4976657;28;20043;-39
2022/10/22 07:06:03;;;;;;;9.10;3.65;;;12.60;99.90;;;;;;4981405;28;20498;-39
2022/10/22 07:08:28;;;;;;;7.00;3.50;;;12.60;99.90;;;;;;4989720;28;20038;-40
2022/10/22 07:10:55;;;;;;;6.57;3.60;;;12.60;99.90;;;;;;4988795;28;20439;-39
2022/10/22 07:13:21;;;;;;;9.50;4.38;;;12.60;99.90;;;;;;4984495;28;20046;-39
2022/10/22 07:15:54;;;;;;;10.02;3.67;;;12.60;99.90;;;;;;4988826;28;20030;-57
2022/10/22 07:18:20;;;;;;;9.40;3.58;;;12.60;99.90;;;;;;4991310;28;20034;-43
2022/10/22 07:20:47;;;;;;;10.32;3.97;;;12.60;99.90;;;;;;4986542;28;20043;-39
2022/10/22 07:23:13;;;;;;;11.85;4.45;;;12.60;99.90;;;;;;4989278;28;20042;-39
2022/10/22 07:25:39;;;;;;;9.50;3.60;;;12.60;99.90;;;;;;4981415;28;20049;-39
2022/10/22 07:28:05;;;;;;;8.63;3.67;;;12.60;99.90;;;;;;4983057;28;20538;-39
2022/10/22 07:30:30;;;;;;;9.82;3.65;;;12.60;99.90;;;;;;4986539;28;20082;-40
2022/10/22 07:32:56;;;;;;;6.88;3.80;;;12.60;99.90;;;;;;4979975;28;20481;-40
2022/10/22 07:35:22;;;;;;;10.50;3.90;;;12.60;99.90;;;;;;4982556;28;20053;-39
2022/10/22 07:37:47;;;;;;;6.97;3.08;;;12.60;99.90;;;;;;4985869;28;20419;-41
2022/10/22 07:40:13;;;;;;;6.30;3.30;;;12.60;99.90;;;;;;4989890;28;20046;-39
2022/10/22 07:42:39;;;;;;;8.27;3.55;;;12.70;99.90;;;;;;4977513;28;20054;-39
2022/10/22 07:45:05;;;;;;;8.25;4.00;;;12.70;99.90;;;;;;4987558;28;20055;-41
2022/10/22 07:47:30;;;;;;;6.93;3.30;;;12.70;99.90;;;;;;4979029;28;20069;-41
2022/10/22 07:49:56;;;;;;;9.88;3.28;;;12.80;99.90;;;;;;4989070;28;20039;-39
2022/10/22 07:52:22;;;;;;;9.32;3.90;;;12.80;99.90;;;;;;4981989;28;20057;-41
2022/10/22 07:54:47;;;;;;;9.63;3.55;;;12.90;99.90;;;;;;4978851;28;20045;-39
2022/10/22 07:57:13;;;;;;;7.68;2.97;;;12.90;99.90;;;;;;4984992;28;20407;-40
2022/10/22 07:59:38;;;;;;;9.35;3.55;;;13.00;99.90;;;;;;4988881;28;20136;-40
2022/10/22 08:02:04;;;;;;;8.95;3.20;;;13.10;99.90;;;;;;4985911;28;20042;-39
2022/10/22 08:04:30;;;;;;;9.02;3.53;;;13.10;99.90;;;;;;4981886;28;20065;-40
2022/10/22 08:06:55;;;;;;;12.45;3.65;;;13.20;99.90;;;;;;4981910;28;20058;-41
2022/10/22 08:09:21;;;;;;;15.90;4.22;;;13.20;99.90;;;;;;4989541;28;20042;-40
2022/10/22 08:11:47;;;;;;;11.98;3.60;;;13.30;99.90;;;;;;4986996;28;20030;-39
2022/10/22 08:14:12;;;;;;;7.30;3.05;;;13.30;99.90;;;;;;4990032;28;20034;-49
2022/10/22 08:16:38;;;;;;;9.75;3.70;;;13.40;99.90;;;;;;4990692;28;20104;-39
2022/10/22 08:19:04;;;;;;;7.78;3.33;;;13.40;99.90;;;;;;4988892;28;20099;-39
2022/10/22 08:21:29;;;;;;;7.88;3.25;;;13.50;99.90;;;;;;4990892;28;20500;-39
2022/10/22 08:23:55;;;;;;;8.35;3.20;;;13.50;99.90;;;;;;4989324;28;20045;-40
2022/10/22 08:26:21;;;;;;;8.50;2.80;;;13.60;99.90;;;;;;4991067;28;20141;-41
2022/10/22 08:28:46;;;;;;;9.35;3.17;;;13.70;99.90;;;;;;4988093;28;20426;-41
2022/10/22 08:31:12;;;;;;;8.65;2.92;;;13.80;99.90;;;;;;4982382;28;20054;-40
2022/10/22 08:33:38;;;;;;;8.52;3.15;;;13.90;99.90;;;;;;4992955;28;20077;-41
2022/10/22 08:36:04;;;;;;;7.65;3.13;;;13.90;99.90;;;;;;4987595;28;20042;-39
2022/10/22 08:38:30;;;;;;;8.02;3.05;;;14.00;99.90;;;;;;4982331;28;20046;-40
2022/10/22 08:41:06;;;;;;;9.60;3.08;;;14.10;99.90;;;;;;4987290;28;20038;-40
2022/10/22 08:43:50;;;;;;;5.70;2.72;;;14.20;99.90;;;;;;4991840;28;20054;-39
2022/10/22 08:46:24;;;;;;;9.00;2.42;;;14.30;99.90;;;;;;4982894;28;20051;-41
2022/10/22 08:48:52;;;;;;;9.68;2.88;;;14.40;99.90;;;;;;4987994;28;20039;-40
2022/10/22 08:51:22;;;;;;;7.82;2.53;;;14.50;99.90;;;;;;4988839;28;20459;-41
2022/10/22 08:53:57;;;;;;;11.80;2.50;;;14.60;99.90;;;;;;4990894;28;20081;-41
2022/10/22 08:56:22;;;;;;;8.13;2.40;;;14.70;99.90;;;;;;4986348;28;20395;-39
2022/10/22 08:58:48;;;;;;;7.10;2.05;;;14.70;99.90;;;;;;4990064;28;20050;-39
2022/10/22 09:01:28;;;;;;;5.70;2.20;;;14.80;99.90;;;;;;4988658;28;20054;-39
2022/10/22 09:04:04;;;;;;;10.23;2.20;;;14.90;99.90;;;;;;4987647;28;20045;-41
2022/10/22 09:06:32;;;;;;;9.48;1.88;;;15.00;99.90;;;;;;4984728;28;20437;-40
2022/10/22 09:08:59;;;;;;;7.50;2.20;;;15.00;99.90;;;;;;4982070;28;20121;-40
2022/10/22 09:11:35;;;;;;;8.15;2.15;;;15.10;99.90;;;;;;4985717;28;20463;-40
2022/10/22 09:14:02;;;;;;;6.07;1.85;;;15.10;99.90;;;;;;4985583;28;20034;-40
2022/10/22 09:16:42;;;;;;;7.32;1.67;;;15.10;99.90;;;;;;4990555;28;20042;-40
2022/10/22 09:19:21;;;;;;;5.18;1.50;;;15.00;99.90;;;;;;4986220;28;20550;-39
2022/10/22 09:22:22;;;;;;;9.05;1.75;;;15.10;99.90;;;;;;4988161;28;20046;-41
2022/10/22 09:24:56;;;;;;;9.52;1.85;;;15.10;99.90;;;;;;4985077;28;20042;-40
2022/10/22 09:27:27;;;;;;;6.38;2.33;;;15.10;99.90;;;;;;4989665;28;20108;-39
2022/10/22 09:29:53;;;;;;;13.15;3.25;;;15.10;99.90;;;;;;4990866;28;20190;-43
2022/10/22 09:32:19;;;;;;;11.32;1.80;;;15.10;99.90;;;;;;4987693;28;20054;-40
2022/10/22 09:34:49;;;;;;;10.20;1.70;;;15.10;99.90;;;;;;4983913;28;20042;-40
2022/10/22 09:37:17;;;;;;;7.15;2.58;;;15.10;99.90;;;;;;4989269;28;20046;-40
2022/10/22 09:39:50;;;;;;;5.85;1.60;;;15.10;99.90;;;;;;4991182;28;20499;-40
2022/10/22 09:42:17;;;;;;;7.82;1.92;;;15.10;99.90;;;;;;4984655;28;20036;-39
2022/10/22 09:44:49;;;;;;;6.53;1.80;;;15.20;99.90;;;;;;4990892;28;20041;-39
2022/10/22 09:47:37;;;;;;;7.28;1.73;;;15.30;99.90;;;;;;4989791;28;20046;-40
2022/10/22 09:50:24;;;;;;;9.93;2.10;;;15.30;99.90;;;;;;4980927;28;20101;-40
2022/10/22 09:53:10;;;;;;;12.77;2.50;;;15.40;99.90;;;;;;4966715;28;20054;-41
2022/10/22 09:55:39;;;;;;;9.65;2.97;;;15.40;99.90;;;;;;4986139;28;20405;-39
2022/10/22 09:58:09;;;;;;;7.72;2.58;;;15.50;99.90;;;;;;4984511;28;20043;-39
2022/10/22 10:00:38;;;;;;;6.55;2.50;;;15.50;99.90;;;;;;4990978;28;20057;-40
2022/10/22 10:03:04;;;;;;;5.72;2.40;;;15.60;99.90;;;;;;4992348;28;20039;-39
2022/10/22 10:05:33;;;;;;;8.95;2.70;;;15.50;99.90;;;;;;4991285;28;20526;-41
2022/10/22 10:08:10;;;;;;;12.40;2.80;;;15.50;99.90;;;;;;4991718;28;20501;-40
2022/10/22 10:11:14;;;;;;;10.63;3.42;;;15.50;99.90;;;;;;4989075;28;20065;-39
2022/10/22 10:13:57;;;;;;;10.95;2.95;;;15.50;99.90;;;;;;4949921;28;20046;-40
2022/10/22 10:16:43;;;;;;;12.55;2.92;;;15.50;99.90;;;;;;4989131;28;20038;-40
2022/10/22 10:19:19;;;;;;;12.15;3.00;;;15.60;99.90;;;;;;4984501;28;20053;-39
2022/10/22 10:21:56;;;;;;;10.70;3.20;;;15.60;99.90;;;;;;4983932;28;20042;-40
2022/10/22 10:24:32;;;;;;;10.27;3.22;;;15.50;99.90;;;;;;4989140;28;20134;-40
2022/10/22 10:27:06;;;;;;;9.93;2.90;;;15.50;99.90;;;;;;4977929;28;20046;-40
2022/10/22 10:29:52;;;;;;;14.13;3.58;;;15.50;99.90;;;;;;4986031;28;20089;-41
2022/10/22 10:32:41;;;;;;;6.60;2.80;;;15.40;99.90;;;;;;4986963;28;20097;-40
2022/10/22 10:35:28;;;;;;;8.00;2.70;;;15.50;99.90;;;;;;4987801;28;20124;-40
2022/10/22 10:38:12;;;;;;;7.05;2.70;;;15.50;99.90;;;;;;4985152;28;20049;-40
2022/10/22 10:40:50;;;;;;;10.68;3.30;;;15.60;99.90;;;;;;4989146;28;20057;-40
2022/10/22 10:43:32;;;;;;;6.95;3.10;;;15.60;99.90;;;;;;4990383;28;20069;-40
2022/10/22 10:46:16;;;;;;;7.68;2.78;;;15.60;99.90;;;;;;4983808;28;20049;-39
2022/10/22 10:48:56;;;;;;;7.90;3.08;;;15.70;99.90;;;;;;4984423;28;20066;-40
2022/10/22 10:51:28;;;;;;;7.00;3.08;;;15.80;99.90;;;;;;4986842;28;20121;-39
2022/10/22 10:54:28;;;;;;;10.30;3.10;;;15.80;99.90;;;;;;4982656;28;20042;-41
2022/10/22 10:57:01;;;;;;;9.25;3.22;;;15.90;99.90;;;;;;4956069;28;20084;-39
2022/10/22 10:59:45;;;;;;;8.63;3.13;;;16.00;99.90;;;;;;4980308;28;20065;-39
2022/10/22 11:02:21;;;;;;;7.88;2.78;;;16.00;99.90;;;;;;4984394;28;20395;-39
2022/10/22 11:04:59;;;;;;;10.20;3.17;;;15.90;99.90;;;;;;4983511;28;20061;-40
2022/10/22 11:07:35;;;;;;;11.57;2.60;;;15.90;99.90;;;;;;4978815;28;20458;-39
2022/10/22 11:10:18;;;;;;;12.50;3.17;;;16.00;99.90;;;;;;4982691;28;20514;-39
2022/10/22 11:12:50;;;;;;;7.38;2.40;;;16.00;99.90;;;;;;4983505;28;20046;-39
2022/10/22 11:15:32;;;;;;;8.40;2.30;;;16.20;99.90;;;;;;4981622;28;20034;-40
2022/10/22 11:18:22;;;;;;;10.27;2.60;;;16.40;99.90;;;;;;4991170;28;20042;-40
2022/10/22 11:21:09;;;;;;;11.95;2.70;;;16.70;99.90;;;;;;4989098;28;20050;-39
2022/10/22 11:23:49;;;;;;;8.25;3.17;;;17.00;99.90;;;;;;4984808;28;20086;-40
2022/10/22 11:26:42;;;;;;;6.47;2.38;;;17.30;99.90;;;;;;4987175;28;20046;-39
2022/10/22 11:29:14;;;;;;;6.22;2.28;;;17.60;99.90;;;;;;4988304;28;20519;-40
2022/10/22 11:31:40;;;;;;;7.93;2.03;;;17.70;99.90;;;;;;4988667;28;20042;-41
2022/10/22 11:34:39;;;;;;;9.27;2.35;;;17.80;99.90;;;;;;4986590;28;20058;-39
2022/10/22 11:37:05;;;;;;;7.45;1.95;;;17.80;99.90;;;;;;4983077;28;20062;-39
2022/10/22 11:40:02;;;;;;;6.90;1.90;;;17.80;99.90;;;;;;4986472;28;20038;-39
2022/10/22 11:42:42;;;;;;;8.90;2.10;;;17.70;99.90;;;;;;4981271;28;20038;-40
2022/10/22 11:45:13;;;;;;;5.35;1.65;;;17.40;99.90;;;;;;4987402;28;20069;-39
2022/10/22 11:48:05;;;;;;;8.02;2.38;;;17.10;99.90;;;;;;4987255;28;20116;-39
2022/10/22 11:50:40;;;;;;;6.43;2.15;;;17.00;99.90;;;;;;4984050;28;20042;-39
2022/10/22 11:53:26;;;;;;;5.20;1.50;;;16.80;99.90;;;;;;4985625;28;20136;-39
2022/10/22 11:55:55;;;;;;;6.20;1.80;;;16.70;99.90;;;;;;4984566;28;20053;-39
2022/10/22 11:58:33;;;;;;;6.50;1.63;;;16.60;99.90;;;;;;4989233;28;20113;-40
2022/10/22 12:01:01;;;;;;;7.75;1.52;;;16.60;99.90;;;;;;4986596;28;21264;-39
2022/10/22 12:03:30;;;;;;;7.20;1.70;;;16.60;99.90;;;;;;4990043;28;20042;-39
2022/10/22 12:06:11;;;;;;;5.30;1.65;;;16.70;99.90;;;;;;4980573;28;20038;-40
2022/10/22 12:09:04;;;;;;;8.23;2.10;;;16.60;99.90;;;;;;4987957;28;20088;-41
2022/10/22 12:11:36;;;;;;;8.00;2.30;;;16.60;99.90;;;;;;4988688;28;20054;-42
2022/10/22 12:14:02;;;;;;;;;;;16.60;99.90;;;;;;4986938;28;20049;-39
2022/10/22 12:16:35;;;;;;;4.10;1.50;;;16.50;99.90;;;;;;4991104;28;19922;-39
2022/10/22 12:19:21;;;;;;;6.03;1.95;;;16.50;99.90;;;;;;4990693;28;20042;-39
2022/10/22 12:22:24;;;;;;;6.93;1.70;;;16.50;99.90;;;;;;4938090;28;20047;-39
2022/10/22 12:24:59;;;;;;;7.05;1.63;;;16.50;99.90;;;;;;4981785;28;20042;-40
2022/10/22 12:27:26;;;;;;;6.70;1.58;;;16.50;99.90;;;;;;4987641;28;20084;-40
2022/10/22 12:29:57;;;;;;;8.05;1.70;;;16.50;99.90;;;;;;4991044;28;20050;-39
2022/10/22 12:32:31;;;;;;;7.25;1.60;;;16.60;99.90;;;;;;4983135;28;20403;-39
2022/10/22 12:35:02;;;;;;;5.22;1.33;;;16.60;99.90;;;;;;4984090;28;20404;-40
2022/10/22 12:37:28;;;;;;;6.45;1.70;;;17.00;99.90;;;;;;4985270;28;20039;-39
2022/10/22 12:39:54;;;;;;;7.28;1.40;;;17.50;99.90;;;;;;4990764;28;20109;-39
2022/10/22 12:42:21;;;;;;;8.80;1.80;;;18.00;99.90;;;;;;4990621;28;20040;-39
2022/10/22 12:44:47;;;;;;;5.70;1.20;;;18.30;99.90;;;;;;4987300;28;20061;-39
2022/10/22 12:47:17;;;;;;;7.03;1.83;;;18.50;99.90;;;;;;4989833;28;20105;-40
2022/10/22 12:49:48;;;;;;;5.88;1.30;;;18.20;99.90;;;;;;4986635;28;20049;-40
2022/10/22 12:52:21;;;;;;;6.25;1.80;;;17.90;99.90;;;;;;4989130;28;20096;-39
2022/10/22 12:54:51;;;;;;;9.10;1.50;;;17.60;99.90;;;;;;4988260;28;20038;-39
2022/10/22 12:57:19;;;;;;;12.10;2.05;;;17.50;99.90;;;;;;4985079;28;20035;-39
2022/10/22 12:59:50;;;;;;;4.57;1.13;;;17.60;99.90;;;;;;4984675;28;20586;-42
2022/10/22 13:02:27;;;;;;;6.95;1.50;;;17.50;99.90;;;;;;4991599;28;20551;-40
2022/10/22 13:05:18;;;;;;;8.95;1.75;;;17.50;99.90;;;;;;4990492;28;20118;-52